createdAt,value
2022-08-17T00:00:49.523Z,99281.13
2022-08-17T00:06:05.153Z,99282.82
2022-08-17T00:11:13.791Z,99283.42
2022-08-17T00:16:55.368Z,99290.23
2022-08-17T00:22:32.988Z,99291.35
2022-08-17T00:27:14.256Z,99290.89
2022-08-17T00:33:14.624Z,99292.48
2022-08-17T00:37:41.479Z,99292.20
2022-08-17T00:42:49.969Z,99295.96
2022-08-17T00:47:54.092Z,99291.52
2022-08-17T00:52:58.818Z,99290.69
2022-08-17T00:58:05.707Z,99287.86
2022-08-17T01:03:22.651Z,99284.94
2022-08-17T01:08:30.126Z,99288.00
2022-08-17T01:13:41.109Z,99293.85
2022-08-17T01:18:48.630Z,99291.46
2022-08-17T01:23:52.523Z,99287.30
2022-08-17T01:28:56.431Z,99290.24
2022-08-17T01:34:05.872Z,99291.48
2022-08-17T01:39:28.265Z,99297.07
2022-08-17T01:44:32.385Z,99301.58
2022-08-17T01:49:36.211Z,99294.66
2022-08-17T01:54:44.346Z,99293.34
2022-08-17T01:59:48.197Z,99293.80
2022-08-17T02:04:51.725Z,99297.30
2022-08-17T02:09:57.079Z,99301.09
2022-08-17T02:15:01.876Z,99300.53
2022-08-17T02:20:05.941Z,99296.23
2022-08-17T02:25:11.918Z,99293.10
2022-08-17T02:31:00.938Z,99289.02
2022-08-17T02:35:39.797Z,99279.08
2022-08-17T02:40:43.342Z,99278.21
2022-08-17T02:45:49.538Z,99276.31
2022-08-17T02:50:54.218Z,99279.54
2022-08-17T02:55:57.946Z,99279.59
2022-08-17T03:01:02.109Z,99280.92
2022-08-17T03:06:07.867Z,99284.48
2022-08-17T03:11:11.877Z,99288.79
2022-08-17T03:16:15.630Z,99289.16
2022-08-17T03:21:19.213Z,99294.99
2022-08-17T03:26:22.560Z,99298.87
2022-08-17T03:31:27.398Z,99300.72
2022-08-17T03:36:36.084Z,99304.77
2022-08-17T03:41:43.401Z,99306.77
2022-08-17T03:47:10.570Z,99310.09
2022-08-17T03:52:32.420Z,99314.16
2022-08-17T03:57:36.868Z,99318.65
2022-08-17T04:02:43.011Z,99319.12
2022-08-17T04:07:46.787Z,99327.08
2022-08-17T04:12:53.229Z,99330.92
2022-08-17T04:17:57.122Z,99335.86
2022-08-17T04:23:05.691Z,99340.11
2022-08-17T04:28:15.754Z,99342.20
2022-08-17T04:33:25.876Z,99339.08
2022-08-17T04:38:32.607Z,99346.06
2022-08-17T04:43:38.839Z,99354.33
2022-08-17T04:48:46.119Z,99358.30
2022-08-17T04:53:54.881Z,99360.00
2022-08-17T04:59:02.927Z,99361.66
2022-08-17T05:04:33.637Z,99368.18
2022-08-17T05:09:37.733Z,99364.42
2022-08-17T05:14:41.678Z,99374.45
2022-08-17T05:19:50.000Z,99376.14
2022-08-17T05:24:56.200Z,99375.10
2022-08-17T05:30:01.665Z,99376.52
2022-08-17T05:35:05.931Z,99378.39
2022-08-17T05:40:10.822Z,99378.64
2022-08-17T05:45:16.245Z,99370.41
2022-08-17T05:50:56.485Z,99377.67
2022-08-17T05:56:29.492Z,99375.57
2022-08-17T06:01:44.635Z,99379.23
2022-08-17T06:07:05.976Z,99380.86
2022-08-17T06:13:01.951Z,99382.10
2022-08-17T06:18:09.707Z,99383.88
2022-08-17T06:23:27.229Z,99389.92
2022-08-17T06:28:43.294Z,99385.59
2022-08-17T06:33:48.110Z,99390.19
2022-08-17T06:39:39.724Z,99395.26
2022-08-17T06:45:17.910Z,99394.80
2022-08-17T06:50:50.223Z,99394.27
2022-08-17T06:56:06.719Z,99398.73
2022-08-17T07:01:20.818Z,99394.77
2022-08-17T07:06:33.292Z,99394.73
2022-08-17T07:11:49.029Z,99394.63
2022-08-17T07:16:57.084Z,99394.05
2022-08-17T07:22:14.401Z,99393.18
2022-08-17T07:27:46.603Z,99401.01
2022-08-17T07:32:54.267Z,99404.58
2022-08-17T07:38:25.584Z,99403.05
2022-08-17T07:43:41.768Z,99402.80
2022-08-17T07:48:55.520Z,99404.58
2022-08-17T07:54:14.009Z,99399.92
2022-08-17T07:59:24.066Z,99406.09
2022-08-17T08:05:00.500Z,99406.67
2022-08-17T08:10:10.671Z,99420.46
2022-08-17T08:15:18.079Z,99415.58
2022-08-17T08:20:52.043Z,99419.83
2022-08-17T08:26:49.508Z,99424.98
2022-08-17T08:31:59.938Z,99419.00
2022-08-17T08:37:35.577Z,99419.70
2022-08-17T08:42:58.438Z,99416.05
2022-08-17T08:48:23.092Z,99427.82
2022-08-17T08:53:43.855Z,99425.02
2022-08-17T08:59:12.366Z,99421.25
2022-08-17T09:04:55.879Z,99421.45
2022-08-17T09:10:24.678Z,99418.05
2022-08-17T09:15:35.207Z,99409.42
2022-08-17T09:21:03.393Z,99408.65
2022-08-17T09:26:26.690Z,99412.07
2022-08-17T09:31:47.023Z,99413.95
2022-08-17T09:37:14.738Z,99414.94
2022-08-17T09:42:41.019Z,99411.84
2022-08-17T09:47:56.634Z,99408.45
2022-08-17T09:53:00.344Z,99408.79
2022-08-17T09:58:15.348Z,99406.66
2022-08-17T10:03:44.660Z,99400.26
2022-08-17T10:09:12.468Z,99399.64
2022-08-17T10:14:37.382Z,99404.30
2022-08-17T10:20:16.907Z,99408.39
2022-08-17T10:25:54.122Z,99403.67
2022-08-17T10:31:33.187Z,99397.44
2022-08-17T10:36:47.851Z,99400.70
2022-08-17T10:41:57.755Z,99405.18
2022-08-17T10:47:15.197Z,99407.08
2022-08-17T10:52:21.097Z,99405.90
2022-08-17T10:57:27.076Z,99409.13
2022-08-17T11:02:41.014Z,99419.39
2022-08-17T11:08:10.751Z,99420.10
2022-08-17T11:13:30.624Z,99413.08
2022-08-17T11:19:22.801Z,99407.87
2022-08-17T11:24:40.536Z,99402.33
2022-08-17T11:29:52.071Z,99409.71
2022-08-17T11:35:32.158Z,99404.20
2022-08-17T11:40:45.299Z,99400.55
2022-08-17T11:46:21.763Z,99403.48
2022-08-17T11:52:08.531Z,99401.79
2022-08-17T11:57:28.260Z,99400.43
2022-08-17T12:02:35.503Z,99400.49
2022-08-17T12:07:52.613Z,99401.01
2022-08-17T12:12:57.704Z,99396.73
2022-08-17T12:18:05.201Z,99397.89
2022-08-17T12:23:39.111Z,99395.11
2022-08-17T12:28:47.405Z,99398.47
2022-08-17T12:33:52.991Z,99397.70
2022-08-17T12:39:13.797Z,99395.05
2022-08-17T12:44:32.499Z,99385.95
2022-08-17T12:49:44.012Z,99381.55
2022-08-17T12:54:47.577Z,99383.92
2022-08-17T13:00:10.283Z,99378.98
2022-08-17T13:05:30.702Z,99368.08
2022-08-17T13:10:36.410Z,99364.27
2022-08-17T13:15:44.741Z,99372.88
2022-08-17T13:20:55.970Z,99368.75
2022-08-17T13:26:07.077Z,99358.47
2022-08-17T13:31:52.214Z,99359.68
2022-08-17T13:37:20.962Z,99363.66
2022-08-17T13:42:52.660Z,99361.05
2022-08-17T13:48:11.163Z,99362.20
2022-08-17T13:53:36.867Z,99369.31
2022-08-17T13:58:54.476Z,99370.13
2022-08-17T14:04:01.443Z,99377.23
2022-08-17T14:09:06.090Z,99381.71
2022-08-17T14:14:10.315Z,99377.63
2022-08-17T14:19:16.567Z,99375.40
2022-08-17T14:24:35.805Z,99373.84
2022-08-17T14:29:42.078Z,99367.20
2022-08-17T14:34:46.703Z,99363.41
2022-08-17T14:39:50.460Z,99361.04
2022-08-17T14:44:55.619Z,99358.03
2022-08-17T14:49:59.848Z,99357.61
2022-08-17T14:55:03.863Z,99357.33
2022-08-17T15:00:08.374Z,99360.05
2022-08-17T15:05:11.807Z,99356.49
2022-08-17T15:10:16.157Z,99360.73
2022-08-17T15:15:19.586Z,99355.95
2022-08-17T15:20:29.200Z,99357.17
2022-08-17T15:25:33.796Z,99359.87
2022-08-17T15:30:38.800Z,99358.45
2022-08-17T15:35:43.243Z,99358.67
2022-08-17T15:40:50.340Z,99360.48
2022-08-17T15:46:00.667Z,99369.56
2022-08-17T15:51:05.649Z,99372.05
2022-08-17T15:56:10.001Z,99373.29
2022-08-17T16:01:46.564Z,99371.98
2022-08-17T16:06:43.398Z,99372.24
2022-08-17T16:11:52.133Z,99380.16
2022-08-17T16:16:59.933Z,99380.26
2022-08-17T16:22:07.611Z,99379.85
2022-08-17T16:27:13.330Z,99376.42
2022-08-17T16:32:31.904Z,99386.53
2022-08-17T16:37:37.613Z,99388.34
2022-08-17T16:42:43.546Z,99391.42
2022-08-17T16:47:50.304Z,99391.46
2022-08-17T16:53:16.647Z,99394.36
2022-08-17T16:58:23.512Z,99392.73
2022-08-17T17:03:29.514Z,99396.30
2022-08-17T17:08:52.568Z,99402.65
2022-08-17T17:14:02.517Z,99409.73
2022-08-17T17:19:37.336Z,99410.13
2022-08-17T17:24:59.135Z,99408.55
2022-08-17T17:30:13.729Z,99411.24
2022-08-17T17:35:17.958Z,99408.96
2022-08-17T17:40:32.634Z,99405.60
2022-08-17T17:45:53.305Z,99408.92
2022-08-17T17:52:02.807Z,99413.77
2022-08-17T17:57:02.665Z,99414.23
2022-08-17T18:02:45.624Z,99421.27
2022-08-17T18:08:33.980Z,99425.17
2022-08-17T18:13:59.849Z,99423.73
2022-08-17T18:19:07.123Z,99428.85
2022-08-17T18:24:14.513Z,99430.48
2022-08-17T18:29:32.303Z,99438.47
2022-08-17T18:34:48.327Z,99441.73
2022-08-17T18:39:55.597Z,99449.60
2022-08-17T18:44:59.647Z,99445.39
2022-08-17T18:50:28.197Z,99443.34
2022-08-17T18:55:32.991Z,99446.82
2022-08-17T19:00:39.633Z,99454.83
2022-08-17T19:05:46.584Z,99470.09
2022-08-17T19:11:10.593Z,99477.80
2022-08-17T19:16:32.744Z,99476.66
2022-08-17T19:21:47.112Z,99477.77
2022-08-17T19:26:57.738Z,99484.31
2022-08-17T19:32:02.898Z,99484.70
2022-08-17T19:37:37.009Z,99483.99
2022-08-17T19:43:23.837Z,99485.08
2022-08-17T19:48:46.261Z,99484.48
2022-08-17T19:54:20.809Z,99492.27
2022-08-17T19:59:42.514Z,99497.61
2022-08-17T20:04:50.389Z,99504.84
2022-08-17T20:10:07.070Z,99503.70
2022-08-17T20:15:23.517Z,99495.27
2022-08-17T20:21:00.008Z,99492.83
2022-08-17T20:26:09.754Z,99484.19
2022-08-17T20:31:50.913Z,99486.45
2022-08-17T20:37:15.540Z,99490.85
2022-08-17T20:42:22.935Z,99491.10
2022-08-17T20:48:07.270Z,99489.99
2022-08-17T20:53:15.034Z,99496.73
2022-08-17T20:58:29.967Z,99501.91
2022-08-17T21:03:49.130Z,99500.23
2022-08-17T21:09:16.364Z,99496.80
2022-08-17T21:14:59.587Z,99493.63
2022-08-17T21:20:28.008Z,99491.79
2022-08-17T21:25:42.705Z,99492.42
2022-08-17T21:30:53.068Z,99495.90
2022-08-17T21:36:00.517Z,99506.75
2022-08-17T21:41:07.056Z,99501.30
2022-08-17T21:46:32.717Z,99496.19
2022-08-17T21:51:45.527Z,99495.30
2022-08-17T21:56:50.584Z,99503.76
2022-08-17T22:02:00.332Z,99508.61
2022-08-17T22:07:13.966Z,99508.79
2022-08-17T22:12:24.851Z,99506.03
2022-08-17T22:17:37.364Z,99499.84
2022-08-17T22:23:06.842Z,99493.48
2022-08-17T22:28:13.634Z,99485.56
2022-08-17T22:33:42.559Z,99477.91
2022-08-17T22:38:48.393Z,99477.35
2022-08-17T22:43:54.357Z,99467.21
2022-08-17T22:49:00.447Z,99460.31
2022-08-17T22:54:36.944Z,99452.42
2022-08-17T22:59:54.516Z,99453.88
2022-08-17T23:05:14.082Z,99455.47
2022-08-17T23:10:20.130Z,99455.27
2022-08-17T23:15:27.024Z,99461.36
2022-08-17T23:20:34.640Z,99462.17
2022-08-17T23:25:39.433Z,99470.94
2022-08-17T23:30:46.410Z,99479.16
2022-08-17T23:35:55.099Z,99489.42
2022-08-17T23:41:05.131Z,99497.49
2022-08-17T23:46:09.979Z,99505.50
2022-08-17T23:51:22.034Z,99510.48
2022-08-17T23:56:26.979Z,99511.89
